Time;durP1;ratioP1;P1;durP2;ratioP2;P2;SDS_P1;SDS_P2;PMS_P1;PMS_P2;Temp;Humidity;BMP_temperature;BMP_pressure;BME280_temperature;BME280_humidity;BME280_pressure;Samples;Min_cycle;Max_cycle;Signal;HPM_P1;HPM_P2
2023/07/28 00:01:26;;;;;;;7.47;4.07;;;19.00;93.60;;;;;;5082539;28;20109;-80
2023/07/28 00:03:51;;;;;;;5.63;3.10;;;19.00;93.60;;;;;;5084809;28;20096;-80
2023/07/28 00:06:17;;;;;;;9.68;3.38;;;19.00;93.90;;;;;;5083418;28;20024;-80
2023/07/28 00:08:42;;;;;;;9.43;3.50;;;19.00;93.60;;;;;;5074109;28;20036;-80
2023/07/28 00:11:13;;;;;;;6.72;3.42;;;19.00;93.70;;;;;;5081037;28;20487;-80
2023/07/28 00:13:39;;;;;;;9.75;3.70;;;19.00;93.60;;;;;;5083342;28;20032;-80
2023/07/28 00:16:06;;;;;;;4.90;3.10;;;19.00;93.60;;;;;;5081337;28;20024;-80
2023/07/28 00:18:31;;;;;;;7.10;3.20;;;19.00;93.60;;;;;;5078202;28;20023;-80
2023/07/28 00:20:57;;;;;;;6.97;3.63;;;19.00;93.60;;;;;;5081129;28;20024;-80
2023/07/28 00:23:23;;;;;;;4.78;3.70;;;19.00;93.60;;;;;;5080248;28;20131;-80
2023/07/28 00:25:48;;;;;;;5.97;3.13;;;19.00;93.60;;;;;;5081783;28;20034;-80
2023/07/28 00:28:14;;;;;;;6.30;3.40;;;19.00;93.60;;;;;;5082404;28;20024;-80
2023/07/28 00:30:40;;;;;;;4.93;3.08;;;19.00;93.60;;;;;;5081597;28;20081;-80
2023/07/28 00:33:05;;;;;;;7.93;4.00;;;19.00;93.50;;;;;;5080683;28;20128;-79
2023/07/28 00:35:31;;;;;;;8.27;3.35;;;19.00;93.60;;;;;;5081310;28;20102;-81
2023/07/28 00:37:57;;;;;;;6.80;3.25;;;19.00;93.60;;;;;;5080552;28;20020;-80
2023/07/28 00:40:23;;;;;;;7.28;3.13;;;19.00;93.60;;;;;;5080490;28;20024;-80
2023/07/28 00:42:48;;;;;;;7.55;3.20;;;19.00;93.60;;;;;;5080344;28;20020;-80
2023/07/28 00:45:14;;;;;;;4.32;2.92;;;19.00;93.60;;;;;;5077460;28;20024;-80
2023/07/28 00:47:40;;;;;;;5.50;3.42;;;19.00;93.70;;;;;;5077969;28;20114;-80
2023/07/28 00:50:08;;;;;;;7.60;3.05;;;19.00;93.60;;;;;;5078460;28;20032;-79
2023/07/28 00:52:34;;;;;;;4.82;2.90;;;19.00;93.60;;;;;;5078972;28;20056;-80
2023/07/28 00:55:00;;;;;;;8.40;3.22;;;19.00;93.60;;;;;;5078811;28;20063;-79
2023/07/28 00:57:26;;;;;;;4.20;2.40;;;19.00;93.60;;;;;;5078778;28;20112;-80
2023/07/28 00:59:52;;;;;;;4.95;2.95;;;18.90;93.50;;;;;;5079724;28;20104;-80
2023/07/28 01:02:19;;;;;;;5.53;3.13;;;18.90;93.50;;;;;;5075991;28;20024;-80
2023/07/28 01:04:45;;;;;;;5.95;3.20;;;19.00;93.60;;;;;;5076939;28;20021;-80
2023/07/28 01:07:15;;;;;;;4.78;2.88;;;19.00;93.60;;;;;;5076752;28;20139;-80
2023/07/28 01:09:45;;;;;;;5.00;3.35;;;19.00;93.60;;;;;;5076538;28;20036;-80
2023/07/28 01:12:11;;;;;;;7.80;3.22;;;19.00;93.60;;;;;;5081685;28;20031;-80
2023/07/28 01:14:36;;;;;;;5.47;2.85;;;19.00;93.60;;;;;;5080443;28;20020;-80
2023/07/28 01:17:02;;;;;;;4.35;2.92;;;19.00;93.60;;;;;;5081118;28;20024;-80
2023/07/28 01:19:28;;;;;;;4.63;3.53;;;19.00;93.60;;;;;;5074434;28;20020;-80
2023/07/28 01:22:09;;;;;;;5.80;3.42;;;19.00;93.60;;;;;;5078026;28;20591;-79
2023/07/28 01:24:50;;;;;;;5.15;3.03;;;18.90;93.60;;;;;;5082318;28;20021;-80
2023/07/28 01:27:16;;;;;;;5.10;2.88;;;19.00;93.60;;;;;;5081967;28;20060;-80
2023/07/28 01:29:42;;;;;;;6.05;2.90;;;19.00;93.60;;;;;;5077547;28;20029;-80
2023/07/28 01:32:10;;;;;;;3.35;2.38;;;18.90;93.60;;;;;;5083677;28;20036;-80
2023/07/28 01:34:35;;;;;;;5.43;3.00;;;19.00;93.60;;;;;;5083132;28;20032;-80
2023/07/28 01:37:01;;;;;;;4.13;3.00;;;18.90;93.60;;;;;;5083358;28;20031;-80
2023/07/28 01:39:27;;;;;;;5.10;3.05;;;19.00;93.60;;;;;;5082211;28;20027;-80
2023/07/28 01:41:52;;;;;;;6.40;2.95;;;19.00;93.60;;;;;;5080182;28;20500;-79
2023/07/28 01:44:18;;;;;;;4.00;2.70;;;19.00;93.60;;;;;;5070979;28;20063;-80
2023/07/28 01:46:43;;;;;;;5.13;3.10;;;18.90;93.50;;;;;;5071661;28;20016;-79
2023/07/28 01:49:09;;;;;;;6.97;3.22;;;19.00;93.60;;;;;;5071822;28;20032;-80
2023/07/28 01:51:34;;;;;;;5.07;2.78;;;18.90;93.60;;;;;;5085179;28;20028;-80
2023/07/28 01:54:00;;;;;;;9.27;2.97;;;18.90;93.50;;;;;;5076554;28;20385;-80
2023/07/28 01:56:26;;;;;;;4.28;2.60;;;18.90;93.60;;;;;;5070788;28;20029;-80
2023/07/28 01:58:51;;;;;;;4.03;2.40;;;18.90;93.50;;;;;;5082436;28;20020;-80
2023/07/28 02:01:17;;;;;;;8.80;3.00;;;18.90;93.60;;;;;;5085666;28;20093;-80
2023/07/28 02:03:42;;;;;;;4.65;2.38;;;18.90;93.60;;;;;;5086075;28;20025;-81
2023/07/28 02:06:08;;;;;;;6.35;2.63;;;18.90;93.60;;;;;;5069777;28;20496;-80
2023/07/28 02:08:33;;;;;;;4.07;2.33;;;18.90;93.60;;;;;;5069040;28;20044;-80
2023/07/28 02:10:59;;;;;;;5.82;3.00;;;18.90;93.60;;;;;;5069307;28;20035;-80
2023/07/28 02:13:24;;;;;;;3.30;2.30;;;18.90;93.60;;;;;;5083457;28;20576;-79
2023/07/28 02:15:50;;;;;;;5.22;2.60;;;18.90;93.60;;;;;;5083829;28;20465;-80
2023/07/28 02:18:15;;;;;;;3.67;2.40;;;18.90;93.60;;;;;;5071776;28;20027;-80
2023/07/28 02:20:41;;;;;;;3.65;2.58;;;18.90;93.60;;;;;;5090697;28;20024;-80
2023/07/28 02:23:07;;;;;;;6.25;2.42;;;18.90;93.60;;;;;;5072511;28;20389;-80
2023/07/28 02:25:32;;;;;;;4.80;2.65;;;18.90;93.60;;;;;;5078626;28;20105;-80
2023/07/28 02:27:58;;;;;;;4.75;3.05;;;18.90;93.60;;;;;;5075571;28;20052;-79
2023/07/28 02:30:23;;;;;;;6.05;2.25;;;18.90;93.50;;;;;;5070660;28;20020;-79
2023/07/28 02:32:49;;;;;;;5.47;3.17;;;18.90;93.60;;;;;;5072399;28;20040;-80
2023/07/28 02:35:14;;;;;;;5.32;2.65;;;18.90;93.60;;;;;;5072851;28;20020;-78
2023/07/28 02:37:41;;;;;;;4.35;2.55;;;18.90;93.60;;;;;;5071542;28;20413;-80
2023/07/28 02:40:07;;;;;;;7.03;2.72;;;18.90;93.60;;;;;;5081918;28;20028;-80
2023/07/28 02:42:35;;;;;;;4.90;2.75;;;18.90;93.60;;;;;;5081890;28;20021;-80
2023/07/28 02:45:00;;;;;;;4.88;2.50;;;18.90;93.60;;;;;;5073951;28;20039;-80
2023/07/28 02:47:26;;;;;;;6.40;2.65;;;18.90;93.60;;;;;;5074412;28;20745;-80
2023/07/28 02:49:51;;;;;;;12.73;3.30;;;18.90;93.60;;;;;;5074345;28;20032;-80
2023/07/28 02:52:17;;;;;;;3.42;2.33;;;18.90;93.60;;;;;;5087151;28;20024;-80
2023/07/28 02:54:43;;;;;;;4.85;2.50;;;18.90;93.60;;;;;;5077632;28;20024;-80
2023/07/28 02:57:08;;;;;;;3.75;2.63;;;18.90;93.60;;;;;;5083927;28;20436;-80
2023/07/28 02:59:34;;;;;;;6.22;2.92;;;18.90;93.60;;;;;;5077868;28;20032;-80
2023/07/28 03:01:59;;;;;;;6.03;3.03;;;18.90;93.60;;;;;;5083317;28;20078;-81
2023/07/28 03:04:25;;;;;;;6.68;3.05;;;18.90;93.60;;;;;;5083796;28;20435;-80
2023/07/28 03:06:50;;;;;;;6.82;3.55;;;18.90;93.50;;;;;;5082751;28;20086;-80
2023/07/28 03:09:16;;;;;;;9.90;2.88;;;18.90;93.60;;;;;;5075976;28;20016;-80
2023/07/28 03:11:43;;;;;;;4.88;2.88;;;18.90;93.60;;;;;;5074762;28;20374;-80
2023/07/28 03:14:08;;;;;;;4.30;2.70;;;18.90;93.60;;;;;;5074888;28;20079;-80
2023/07/28 03:16:34;;;;;;;6.40;2.90;;;18.90;93.60;;;;;;5077187;28;20426;-80
2023/07/28 03:19:00;;;;;;;4.05;2.67;;;18.90;93.60;;;;;;5077301;28;20036;-80
2023/07/28 03:21:29;;;;;;;5.13;3.03;;;18.90;93.60;;;;;;5080370;28;20028;-80
2023/07/28 03:23:54;;;;;;;5.57;2.63;;;18.90;93.60;;;;;;5084000;28;20016;-80
2023/07/28 03:26:20;;;;;;;7.68;2.75;;;18.90;93.60;;;;;;5083085;28;20119;-80
2023/07/28 03:28:45;;;;;;;6.40;2.75;;;18.90;93.60;;;;;;5082556;28;20035;-80
2023/07/28 03:31:11;;;;;;;4.35;3.00;;;18.90;93.60;;;;;;5080490;28;20056;-80
2023/07/28 03:33:37;;;;;;;5.05;2.95;;;18.90;93.60;;;;;;5076961;28;20036;-80
2023/07/28 03:36:03;;;;;;;7.80;2.90;;;18.90;93.60;;;;;;5082034;28;20116;-80
2023/07/28 03:38:28;;;;;;;4.43;2.88;;;18.90;93.90;;;;;;5080023;28;20012;-80
2023/07/28 03:40:54;;;;;;;9.60;3.28;;;18.90;93.60;;;;;;5080956;28;20408;-80
2023/07/28 03:43:20;;;;;;;12.77;2.65;;;18.90;93.60;;;;;;5081976;28;20063;-80
2023/07/28 03:45:46;;;;;;;10.27;2.95;;;18.90;93.60;;;;;;5079843;28;20030;-80
2023/07/28 03:48:12;;;;;;;4.43;2.85;;;18.90;93.60;;;;;;5079240;28;20021;-80
2023/07/28 03:50:37;;;;;;;5.95;3.00;;;18.90;93.60;;;;;;5079997;28;20161;-80
2023/07/28 03:53:03;;;;;;;3.63;2.60;;;18.90;93.60;;;;;;5078953;28;20036;-80
2023/07/28 03:55:28;;;;;;;5.28;2.72;;;18.90;93.60;;;;;;5077585;28;20028;-80
2023/07/28 03:57:54;;;;;;;6.55;2.80;;;18.90;93.60;;;;;;5078598;28;20358;-80
2023/07/28 04:00:20;;;;;;;4.13;2.65;;;18.90;93.60;;;;;;5078301;28;20024;-80
2023/07/28 04:02:46;;;;;;;4.43;2.40;;;18.90;93.60;;;;;;5081481;28;20099;-80
2023/07/28 04:05:11;;;;;;;10.70;3.15;;;18.90;93.60;;;;;;5077257;28;20067;-80
2023/07/28 04:07:37;;;;;;;14.68;2.75;;;18.90;93.60;;;;;;5078821;28;20115;-80
2023/07/28 04:10:04;;;;;;;6.57;2.97;;;18.90;93.60;;;;;;5082211;28;20532;-80
2023/07/28 04:12:29;;;;;;;3.38;2.40;;;18.90;93.60;;;;;;5080800;28;20458;-80
2023/07/28 04:14:55;;;;;;;4.15;3.00;;;18.90;93.90;;;;;;5082373;28;20020;-80
2023/07/28 04:17:20;;;;;;;6.97;2.42;;;18.90;93.60;;;;;;5080109;28;20025;-80
2023/07/28 04:19:46;;;;;;;4.72;2.72;;;18.90;93.60;;;;;;5081056;28;20055;-79
2023/07/28 04:22:13;;;;;;;5.85;2.83;;;18.90;93.60;;;;;;5075730;28;20031;-80
2023/07/28 04:24:38;;;;;;;3.08;1.90;;;18.90;93.60;;;;;;5073291;28;20427;-80
2023/07/28 04:27:04;;;;;;;4.30;2.60;;;18.90;93.60;;;;;;5074400;28;20028;-80
2023/07/28 04:29:30;;;;;;;5.38;2.42;;;18.90;93.60;;;;;;5074728;28;20063;-80
2023/07/28 04:31:55;;;;;;;3.00;2.38;;;18.90;93.60;;;;;;5072150;28;20556;-80
2023/07/28 04:34:21;;;;;;;5.00;2.13;;;18.90;93.60;;;;;;5072475;28;20093;-79
2023/07/28 04:36:47;;;;;;;6.45;2.50;;;18.80;93.60;;;;;;5072895;28;20098;-79
2023/07/28 04:39:12;;;;;;;10.15;3.10;;;18.90;93.60;;;;;;5073044;28;20024;-80
2023/07/28 04:41:38;;;;;;;6.00;2.40;;;18.90;93.60;;;;;;5076287;28;20369;-80
2023/07/28 04:44:03;;;;;;;5.20;2.75;;;18.90;93.60;;;;;;5085129;28;20035;-80
2023/07/28 04:46:29;;;;;;;3.47;2.17;;;18.90;93.60;;;;;;5085796;28;20036;-80
2023/07/28 04:48:57;;;;;;;5.75;2.15;;;18.90;93.60;;;;;;5084699;28;20626;-80
2023/07/28 04:51:22;;;;;;;3.30;2.40;;;18.90;93.60;;;;;;5079535;28;20024;-79
2023/07/28 04:53:48;;;;;;;4.05;2.60;;;18.90;93.60;;;;;;5085347;28;20051;-79
2023/07/28 04:56:13;;;;;;;2.58;2.08;;;18.80;93.50;;;;;;5085300;28;20630;-80
2023/07/28 04:58:39;;;;;;;7.85;2.80;;;18.80;93.60;;;;;;5081027;28;20035;-80
2023/07/28 05:01:05;;;;;;;7.15;2.83;;;18.80;93.60;;;;;;5068930;28;20031;-80
2023/07/28 05:03:30;;;;;;;3.80;2.30;;;18.90;93.60;;;;;;5080324;28;20021;-80
2023/07/28 05:05:56;;;;;;;4.82;2.38;;;18.90;93.90;;;;;;5071104;28;20517;-80
2023/07/28 05:08:22;;;;;;;3.50;2.60;;;18.90;93.50;;;;;;5069871;28;20489;-79
2023/07/28 05:10:47;;;;;;;4.70;2.60;;;18.90;93.40;;;;;;5069096;28;20155;-79
2023/07/28 05:13:13;;;;;;;3.55;2.63;;;18.90;93.40;;;;;;5069869;28;20039;-79
2023/07/28 05:15:39;;;;;;;5.97;2.60;;;18.90;93.70;;;;;;5073763;28;20108;-79
2023/07/28 05:18:04;;;;;;;5.43;3.10;;;18.90;93.40;;;;;;5069875;28;20024;-79
2023/07/28 05:20:30;;;;;;;3.63;2.53;;;18.90;93.40;;;;;;5069546;28;20032;-79
2023/07/28 05:22:56;;;;;;;3.60;2.45;;;18.90;93.50;;;;;;5082893;28;20029;-79
2023/07/28 05:25:22;;;;;;;7.72;2.83;;;19.00;93.50;;;;;;5087574;28;20112;-79
2023/07/28 05:27:47;;;;;;;4.53;2.50;;;19.00;93.50;;;;;;5081382;28;20111;-79
2023/07/28 05:30:13;;;;;;;7.97;3.00;;;19.00;93.50;;;;;;5071040;28;20132;-80
2023/07/28 05:32:38;;;;;;;3.83;2.63;;;19.00;93.40;;;;;;5070443;28;20032;-80
2023/07/28 05:35:04;;;;;;;3.72;2.47;;;19.00;93.40;;;;;;5074137;28;20028;-79
2023/07/28 05:37:30;;;;;;;5.32;2.95;;;19.00;93.40;;;;;;5083862;28;20116;-80
2023/07/28 05:39:56;;;;;;;8.65;3.00;;;19.00;93.40;;;;;;5072052;28;20035;-80
2023/07/28 05:42:21;;;;;;;7.07;2.60;;;19.00;93.40;;;;;;5072971;28;20024;-79
2023/07/28 05:44:47;;;;;;;3.60;2.20;;;19.00;93.40;;;;;;5071732;28;20024;-79
2023/07/28 05:47:13;;;;;;;6.72;2.90;;;19.00;93.40;;;;;;5075169;28;20025;-79
2023/07/28 05:49:38;;;;;;;9.18;2.72;;;19.00;93.40;;;;;;5078833;28;20024;-80
2023/07/28 05:52:04;;;;;;;4.70;2.83;;;19.00;93.40;;;;;;5089911;28;20027;-80
2023/07/28 05:54:30;;;;;;;5.60;2.78;;;19.00;93.40;;;;;;5088937;28;20036;-79
2023/07/28 05:56:55;;;;;;;4.13;2.28;;;19.00;93.40;;;;;;5086383;28;20016;-80
2023/07/28 05:59:21;;;;;;;8.02;2.88;;;19.00;93.50;;;;;;5085067;28;20035;-80
2023/07/28 06:01:47;;;;;;;7.63;3.10;;;19.00;93.50;;;;;;5092528;28;20469;-79
2023/07/28 06:04:12;;;;;;;3.63;2.40;;;19.00;93.60;;;;;;5084270;28;20031;-79
2023/07/28 06:06:38;;;;;;;4.85;2.85;;;19.00;93.50;;;;;;5082197;28;20025;-79
2023/07/28 06:09:04;;;;;;;10.10;3.03;;;19.00;93.60;;;;;;5085749;28;20032;-80
2023/07/28 06:11:29;;;;;;;4.85;2.38;;;19.00;93.60;;;;;;5079279;28;20037;-79
2023/07/28 06:13:55;;;;;;;2.92;2.53;;;19.00;93.50;;;;;;5074079;28;20404;-80
2023/07/28 06:16:21;;;;;;;4.53;2.83;;;19.00;93.50;;;;;;5083913;28;20027;-80
2023/07/28 06:18:46;;;;;;;6.88;3.10;;;19.00;93.50;;;;;;5087866;28;20036;-80
2023/07/28 06:21:12;;;;;;;5.18;2.92;;;19.00;93.70;;;;;;5083823;28;20024;-80
2023/07/28 06:23:37;;;;;;;5.00;2.60;;;19.00;93.60;;;;;;5085754;28;20442;-79
2023/07/28 06:26:03;;;;;;;3.97;3.00;;;19.00;93.60;;;;;;5084611;28;20055;-80
2023/07/28 06:28:29;;;;;;;4.60;2.40;;;19.00;93.70;;;;;;5084507;28;20033;-79
2023/07/28 06:30:55;;;;;;;5.80;2.63;;;19.00;93.70;;;;;;5085445;28;20119;-80
2023/07/28 06:33:21;;;;;;;7.78;2.92;;;19.00;93.60;;;;;;5088625;28;20059;-80
2023/07/28 06:35:47;;;;;;;5.40;2.50;;;19.00;93.70;;;;;;5082054;28;20021;-79
2023/07/28 06:38:12;;;;;;;5.20;2.70;;;19.00;93.70;;;;;;5085810;28;20059;-80
2023/07/28 06:40:38;;;;;;;4.85;2.83;;;18.90;93.70;;;;;;5068007;28;20036;-80
2023/07/28 06:43:04;;;;;;;4.90;2.92;;;19.00;93.70;;;;;;5083259;28;20020;-79
2023/07/28 06:45:29;;;;;;;8.05;3.05;;;18.90;93.70;;;;;;5084963;28;20059;-79
2023/07/28 06:47:55;;;;;;;6.72;3.10;;;18.70;93.70;;;;;;5077783;28;20516;-79
2023/07/28 06:50:20;;;;;;;5.93;3.03;;;19.00;93.80;;;;;;5081418;28;20024;-79
2023/07/28 06:52:47;;;;;;;5.57;2.47;;;19.00;93.70;;;;;;5083969;28;20043;-79
2023/07/28 06:55:16;;;;;;;4.63;3.08;;;19.00;93.80;;;;;;5083129;28;20036;-79
2023/07/28 06:57:42;;;;;;;3.72;2.55;;;19.00;93.80;;;;;;5083335;28;20028;-79
2023/07/28 07:00:09;;;;;;;6.10;2.88;;;19.00;93.80;;;;;;5087940;28;20496;-79
2023/07/28 07:02:35;;;;;;;4.07;2.53;;;19.00;93.70;;;;;;5085374;28;20077;-79
2023/07/28 07:05:01;;;;;;;4.20;2.35;;;19.00;93.80;;;;;;5084291;28;20035;-79
2023/07/28 07:07:26;;;;;;;10.00;3.13;;;19.00;93.80;;;;;;5085180;28;20373;-80
2023/07/28 07:09:52;;;;;;;5.80;2.83;;;19.00;93.80;;;;;;5090856;28;20106;-79
2023/07/28 07:12:19;;;;;;;6.57;2.95;;;19.00;93.80;;;;;;5085416;28;20032;-79
2023/07/28 07:14:44;;;;;;;4.78;2.67;;;19.00;93.80;;;;;;5090844;28;20023;-80
2023/07/28 07:17:10;;;;;;;5.35;2.65;;;19.00;93.90;;;;;;5080974;28;20453;-80
2023/07/28 07:19:36;;;;;;;6.85;2.83;;;19.00;93.80;;;;;;5083614;28;20025;-79
2023/07/28 07:22:05;;;;;;;6.63;2.85;;;18.90;93.80;;;;;;5082298;28;20034;-80
2023/07/28 07:24:31;;;;;;;7.13;3.27;;;19.00;93.90;;;;;;5084004;28;20469;-80
2023/07/28 07:26:57;;;;;;;7.30;2.90;;;19.00;93.90;;;;;;5091837;28;20266;-80
2023/07/28 07:29:22;;;;;;;6.22;3.22;;;19.00;93.90;;;;;;5085879;28;20346;-80
2023/07/28 07:31:48;;;;;;;4.85;3.20;;;19.00;93.90;;;;;;5082767;28;20342;-80
2023/07/28 07:34:14;;;;;;;10.27;3.20;;;19.00;93.90;;;;;;5079208;28;20029;-80
2023/07/28 07:36:40;;;;;;;4.97;2.55;;;19.00;93.90;;;;;;5082939;28;20061;-80
2023/07/28 07:39:06;;;;;;;4.50;2.50;;;19.00;94.00;;;;;;5078694;28;20020;-80
2023/07/28 07:41:31;;;;;;;6.03;2.83;;;19.00;94.00;;;;;;5082383;28;20107;-80
2023/07/28 07:43:57;;;;;;;7.25;3.33;;;19.00;94.00;;;;;;5086123;28;20091;-80
2023/07/28 07:46:23;;;;;;;6.60;2.90;;;19.00;93.90;;;;;;5081952;28;20414;-80
2023/07/28 07:48:49;;;;;;;5.85;2.83;;;19.00;94.00;;;;;;5075381;28;20020;-80
2023/07/28 07:51:16;;;;;;;5.88;3.63;;;19.00;94.10;;;;;;5078768;28;20043;-80
2023/07/28 07:53:42;;;;;;;4.38;3.03;;;19.00;94.10;;;;;;5081471;28;20033;-80
2023/07/28 07:56:08;;;;;;;4.35;2.95;;;19.00;94.10;;;;;;5077487;28;20073;-80
2023/07/28 07:58:34;;;;;;;9.05;2.70;;;19.00;94.10;;;;;;5082181;28;20047;-80
2023/07/28 08:01:00;;;;;;;7.72;3.10;;;19.00;94.10;;;;;;5083353;28;20021;-79
2023/07/28 08:03:27;;;;;;;8.18;3.42;;;19.00;94.10;;;;;;5081685;28;20036;-80
2023/07/28 08:05:53;;;;;;;7.72;3.10;;;19.00;94.20;;;;;;5080880;28;20043;-80
2023/07/28 08:08:19;;;;;;;7.53;3.75;;;19.00;94.20;;;;;;5085299;28;20102;-80
2023/07/28 08:10:48;;;;;;;3.92;2.92;;;19.00;94.20;;;;;;5080488;28;20788;-80
2023/07/28 08:13:14;;;;;;;4.67;2.93;;;19.00;94.20;;;;;;5085030;28;20024;-80
2023/07/28 08:15:42;;;;;;;7.07;3.28;;;19.00;94.20;;;;;;5082717;28;20027;-80
2023/07/28 08:18:08;;;;;;;5.70;2.80;;;19.00;94.30;;;;;;5081916;28;20031;-80
2023/07/28 08:20:34;;;;;;;8.98;3.88;;;19.00;94.30;;;;;;5077467;28;20024;-80
2023/07/28 08:22:59;;;;;;;5.57;3.28;;;19.10;94.30;;;;;;5076885;28;20113;-80
2023/07/28 08:25:25;;;;;;;8.18;4.10;;;19.10;94.30;;;;;;5078572;28;20078;-81
2023/07/28 08:27:51;;;;;;;6.40;3.10;;;19.10;94.40;;;;;;5080712;28;20070;-81
2023/07/28 08:30:16;;;;;;;7.30;3.50;;;19.10;94.40;;;;;;5086494;28;20070;-81
2023/07/28 08:32:42;;;;;;;10.85;3.30;;;19.10;94.90;;;;;;5082606;28;20393;-80
2023/07/28 08:35:09;;;;;;;6.35;3.30;;;19.10;94.80;;;;;;5081057;28;20103;-80
2023/07/28 08:37:34;;;;;;;9.23;2.85;;;19.10;94.80;;;;;;5078340;28;20384;-80
2023/07/28 08:40:00;;;;;;;3.92;2.50;;;19.10;94.90;;;;;;5085235;28;20108;-80
2023/07/28 08:42:28;;;;;;;5.25;3.03;;;19.10;95.10;;;;;;5078772;28;20492;-79
2023/07/28 08:44:54;;;;;;;7.18;2.85;;;19.10;95.00;;;;;;5084574;28;20556;-80
2023/07/28 08:47:20;;;;;;;9.05;3.13;;;19.10;95.20;;;;;;5085022;28;20111;-80
2023/07/28 08:49:45;;;;;;;5.13;2.95;;;19.10;95.30;;;;;;5082519;28;20058;-80
2023/07/28 08:52:14;;;;;;;3.63;2.15;;;19.10;95.20;;;;;;5077711;28;20028;-81
2023/07/28 08:54:40;;;;;;;4.40;2.53;;;19.10;95.60;;;;;;5080430;28;20051;-79
2023/07/28 08:57:06;;;;;;;4.18;2.70;;;19.10;95.40;;;;;;5083816;28;20047;-80
2023/07/28 08:59:31;;;;;;;4.05;2.50;;;19.10;95.40;;;;;;5083908;28;20074;-80
2023/07/28 09:02:01;;;;;;;5.20;2.97;;;19.10;95.60;;;;;;5087939;28;20024;-80
2023/07/28 09:04:27;;;;;;;4.47;2.53;;;19.10;95.60;;;;;;5085167;28;20024;-81
2023/07/28 09:06:53;;;;;;;6.25;2.72;;;19.10;95.80;;;;;;5081633;28;20050;-80
2023/07/28 09:09:22;;;;;;;5.57;2.15;;;19.10;95.70;;;;;;5084458;28;20468;-80
2023/07/28 09:11:50;;;;;;;9.23;2.30;;;19.20;95.80;;;;;;5086446;28;20017;-80
2023/07/28 09:14:17;;;;;;;6.20;2.30;;;19.10;95.60;;;;;;5085629;28;20507;-80
2023/07/28 09:16:43;;;;;;;4.20;2.55;;;19.20;96.00;;;;;;5083798;28;20048;-79
2023/07/28 09:19:09;;;;;;;2.58;2.00;;;19.20;95.90;;;;;;5082933;28;20067;-79
2023/07/28 09:21:37;;;;;;;4.03;1.92;;;19.20;96.10;;;;;;5086164;28;20020;-80
2023/07/28 09:24:06;;;;;;;5.80;2.28;;;19.20;96.00;;;;;;5087934;28;20108;-80
2023/07/28 09:26:46;;;;;;;6.32;2.35;;;19.20;96.10;;;;;;5088097;28;20476;-79
2023/07/28 09:29:20;;;;;;;9.45;3.17;;;19.20;96.20;;;;;;5090283;28;20039;-79
2023/07/28 09:31:47;;;;;;;5.00;2.30;;;19.20;96.00;;;;;;5085351;28;20028;-79
2023/07/28 09:34:26;;;;;;;5.90;2.70;;;19.20;95.80;;;;;;5090092;28;20024;-80
2023/07/28 09:36:57;;;;;;;5.35;2.45;;;19.20;95.90;;;;;;5085808;28;20024;-79
2023/07/28 09:39:24;;;;;;;3.53;1.95;;;19.20;96.40;;;;;;5090447;28;20020;-80
2023/07/28 09:41:49;;;;;;;6.15;2.75;;;19.20;96.40;;;;;;5090649;28;20082;-79
2023/07/28 09:44:16;;;;;;;8.93;2.97;;;19.20;96.30;;;;;;5089378;28;20501;-79
2023/07/28 09:46:56;;;;;;;5.50;2.88;;;19.20;96.30;;;;;;5084084;28;20078;-80
2023/07/28 09:49:45;;;;;;;4.30;2.38;;;19.20;96.10;;;;;;5088526;28;20060;-79
2023/07/28 09:52:14;;;;;;;3.60;2.47;;;19.20;96.10;;;;;;5086961;28;20547;-80
2023/07/28 09:54:41;;;;;;;5.68;2.30;;;19.20;96.10;;;;;;5087894;28;20107;-80
2023/07/28 09:57:19;;;;;;;4.40;2.75;;;19.20;95.90;;;;;;5085680;28;20043;-80
2023/07/28 09:59:46;;;;;;;5.50;2.80;;;19.20;96.00;;;;;;5086238;28;20024;-79
2023/07/28 10:02:12;;;;;;;3.88;1.90;;;19.20;95.90;;;;;;5084952;28;20111;-81
2023/07/28 10:04:38;;;;;;;3.97;2.67;;;19.20;96.10;;;;;;5083584;28;20020;-80
2023/07/28 10:07:08;;;;;;;4.45;2.40;;;19.30;96.50;;;;;;5092356;28;20376;-79
2023/07/28 10:09:34;;;;;;;8.38;2.50;;;19.30;96.40;;;;;;5093849;28;20023;-81
2023/07/28 10:12:01;;;;;;;4.20;2.70;;;19.30;96.20;;;;;;5088869;28;20384;-80
2023/07/28 10:14:34;;;;;;;7.55;2.72;;;19.30;96.20;;;;;;5087679;28;20084;-80
2023/07/28 10:17:04;;;;;;;5.13;2.75;;;19.30;96.10;;;;;;5084593;28;20031;-80
2023/07/28 10:19:34;;;;;;;4.68;2.50;;;19.30;96.10;;;;;;5078805;28;20031;-80
2023/07/28 10:22:07;;;;;;;4.78;2.70;;;19.30;96.20;;;;;;5082839;28;20119;-81
2023/07/28 10:24:56;;;;;;;4.03;2.20;;;19.20;96.10;;;;;;5109673;27;20376;-79
2023/07/28 10:27:33;;;;;;;2.97;2.47;;;19.30;96.20;;;;;;5089529;28;20104;-79
2023/07/28 10:30:01;;;;;;;4.05;2.30;;;19.30;96.20;;;;;;5087632;28;20590;-79
2023/07/28 10:32:28;;;;;;;4.05;2.33;;;19.30;96.20;;;;;;5082431;28;20024;-80
2023/07/28 10:35:05;;;;;;;4.28;2.60;;;19.30;96.40;;;;;;5078757;28;20074;-80
2023/07/28 10:37:31;;;;;;;3.00;2.08;;;19.30;96.60;;;;;;5080609;28;20035;-78
2023/07/28 10:40:22;;;;;;;5.28;2.22;;;19.20;96.10;;;;;;5090837;28;20020;-80
2023/07/28 10:42:48;;;;;;;5.72;2.50;;;19.20;96.30;;;;;;5086054;28;20016;-79
2023/07/28 10:45:15;;;;;;;3.60;2.30;;;19.30;96.50;;;;;;5085729;28;20030;-80
2023/07/28 10:47:41;;;;;;;6.82;2.63;;;19.30;96.30;;;;;;5083645;28;20020;-80
2023/07/28 10:50:10;;;;;;;6.10;2.75;;;19.30;96.00;;;;;;5077497;28;20028;-79
2023/07/28 10:52:43;;;;;;;5.00;2.53;;;19.30;96.10;;;;;;5074748;28;20039;-79
2023/07/28 10:55:20;;;;;;;4.72;2.63;;;19.30;96.20;;;;;;5079234;28;20024;-80
2023/07/28 10:57:47;;;;;;;10.15;2.95;;;19.30;96.20;;;;;;5085742;28;20077;-79
2023/07/28 11:00:15;;;;;;;8.63;2.63;;;19.30;96.30;;;;;;5084376;28;20020;-80
2023/07/28 11:02:49;;;;;;;6.07;2.60;;;19.30;96.20;;;;;;5082232;28;20059;-79
2023/07/28 11:05:20;;;;;;;3.45;2.38;;;19.30;96.10;;;;;;5080370;28;20013;-79
2023/07/28 11:07:46;;;;;;;4.65;2.55;;;19.30;96.20;;;;;;5073703;28;20854;-79
2023/07/28 11:10:13;;;;;;;4.50;2.53;;;19.30;96.10;;;;;;5081218;28;20099;-79
2023/07/28 11:12:42;;;;;;;8.07;2.10;;;19.30;96.20;;;;;;5093334;28;20028;-79
2023/07/28 11:15:12;;;;;;;3.75;2.30;;;19.30;96.20;;;;;;5083999;28;20042;-79
2023/07/28 11:17:44;;;;;;;4.60;2.30;;;19.30;96.10;;;;;;5081942;28;20035;-79
2023/07/28 11:20:17;;;;;;;3.88;1.95;;;19.30;96.20;;;;;;5079153;28;20307;-78
2023/07/28 11:22:44;;;;;;;4.10;2.60;;;19.30;96.20;;;;;;5076661;28;20032;-79
2023/07/28 11:25:10;;;;;;;6.18;2.60;;;19.30;96.10;;;;;;5083576;28;20031;-80
2023/07/28 11:27:37;;;;;;;3.25;2.00;;;19.30;96.20;;;;;;5087118;28;20026;-80
2023/07/28 11:30:03;;;;;;;4.53;2.60;;;19.30;96.20;;;;;;5088803;28;20403;-79
2023/07/28 11:32:30;;;;;;;4.57;2.75;;;19.30;96.10;;;;;;5086194;28;20017;-79
2023/07/28 11:35:05;;;;;;;5.10;2.88;;;19.30;96.40;;;;;;5083421;28;20008;-79
2023/07/28 11:37:35;;;;;;;5.43;2.65;;;19.30;96.20;;;;;;5079039;28;20028;-79
2023/07/28 11:40:10;;;;;;;8.85;2.60;;;19.30;96.20;;;;;;5082146;28;20121;-79
2023/07/28 11:42:38;;;;;;;4.97;2.63;;;19.30;96.10;;;;;;5087143;28;20129;-79
2023/07/28 11:45:04;;;;;;;4.03;2.53;;;19.30;96.40;;;;;;5085516;28;20032;-79
2023/07/28 11:47:30;;;;;;;3.97;2.55;;;19.30;96.30;;;;;;5083646;28;21216;-79
2023/07/28 11:49:58;;;;;;;9.07;2.60;;;19.30;96.70;;;;;;5084227;28;20033;-80
2023/07/28 11:52:34;;;;;;;4.25;2.25;;;19.30;96.50;;;;;;5078771;28;20048;-79
2023/07/28 11:55:00;;;;;;;2.95;2.03;;;19.30;96.50;;;;;;5080751;28;20431;-79
2023/07/28 11:57:30;;;;;;;3.97;2.33;;;19.30;96.60;;;;;;5087968;28;20051;-79
2023/07/28 11:59:56;;;;;;;3.45;2.05;;;19.30;96.60;;;;;;5085001;28;20585;-80
2023/07/28 12:02:29;;;;;;;6.43;3.20;;;19.30;96.80;;;;;;5086246;28;20841;-80
2023/07/28 12:04:57;;;;;;;4.47;2.58;;;19.30;96.90;;;;;;5083801;28;20023;-81
2023/07/28 12:07:33;;;;;;;3.60;2.25;;;19.30;96.90;;;;;;5083817;28;20126;-80
2023/07/28 12:10:09;;;;;;;3.13;2.50;;;19.30;96.80;;;;;;5081558;28;20024;-80
2023/07/28 12:13:05;;;;;;;4.70;2.50;;;19.30;96.80;;;;;;5086749;28;20033;-81
2023/07/28 12:15:31;;;;;;;2.97;2.38;;;19.30;97.00;;;;;;5081739;28;20035;-80
2023/07/28 12:18:10;;;;;;;4.90;2.60;;;19.30;97.00;;;;;;5087321;28;20057;-81
2023/07/28 12:20:47;;;;;;;3.85;2.35;;;19.30;97.00;;;;;;5085984;28;20024;-80
2023/07/28 12:23:15;;;;;;;4.57;2.33;;;19.30;97.00;;;;;;5082826;28;20473;-80
2023/07/28 12:25:41;;;;;;;4.35;2.53;;;19.30;97.00;;;;;;5084016;28;20073;-80
2023/07/28 12:28:07;;;;;;;3.75;2.80;;;19.30;97.10;;;;;;5086292;28;20533;-81
2023/07/28 12:30:33;;;;;;;7.95;2.78;;;19.30;97.10;;;;;;5084470;28;20023;-80
2023/07/28 12:33:00;;;;;;;3.60;2.50;;;19.30;97.20;;;;;;5081921;28;20031;-80
2023/07/28 12:35:30;;;;;;;4.53;2.88;;;19.30;97.30;;;;;;5085101;28;20031;-81
2023/07/28 12:37:56;;;;;;;;;;;19.30;97.20;;;;;;5087653;28;20028;-80
2023/07/28 12:40:22;;;;;;;3.97;2.47;;;19.30;97.30;;;;;;5087549;28;19908;-80
2023/07/28 12:42:48;;;;;;;5.13;2.88;;;19.30;97.20;;;;;;5086144;28;20023;-80
2023/07/28 12:45:15;;;;;;;5.72;3.22;;;19.30;97.30;;;;;;5081303;28;20020;-81